sensor_id;sensor_type;location;lat;lon;timestamp;pressure;altitude;pressure_sealevel;temperature;humidity
13869;BME280;7004;48.206;16.402;2024-02-28T00:01:50;99494.84;;;10.83;90.73
13869;BME280;7004;48.206;16.402;2024-02-28T00:04:18;99494.97;;;10.82;90.48
13869;BME280;7004;48.206;16.402;2024-02-28T00:06:44;99492.31;;;10.82;90.42
13869;BME280;7004;48.206;16.402;2024-02-28T00:09:12;99498.09;;;10.87;90.48
13869;BME280;7004;48.206;16.402;2024-02-28T00:11:43;99496.22;;;10.89;90.44
13869;BME280;7004;48.206;16.402;2024-02-28T00:14:13;99490.81;;;10.78;90.72
13869;BME280;7004;48.206;16.402;2024-02-28T00:16:43;99501.47;;;10.63;91.78
13869;BME280;7004;48.206;16.402;2024-02-28T00:19:10;99505.38;;;10.58;92.06
13869;BME280;7004;48.206;16.402;2024-02-28T00:21:40;99495.56;;;10.60;92.39
13869;BME280;7004;48.206;16.402;2024-02-28T00:24:09;99502.09;;;10.54;92.89
13869;BME280;7004;48.206;16.402;2024-02-28T00:26:39;99501.88;;;10.57;92.69
13869;BME280;7004;48.206;16.402;2024-02-28T00:29:06;99494.81;;;10.58;92.46
13869;BME280;7004;48.206;16.402;2024-02-28T00:31:32;99496.25;;;10.36;93.51
13869;BME280;7004;48.206;16.402;2024-02-28T00:33:59;99492.13;;;10.45;93.76
13869;BME280;7004;48.206;16.402;2024-02-28T00:36:25;99495.59;;;10.33;94.33
13869;BME280;7004;48.206;16.402;2024-02-28T00:38:51;99498.91;;;10.22;94.65
13869;BME280;7004;48.206;16.402;2024-02-28T00:41:17;99498.59;;;10.26;94.92
13869;BME280;7004;48.206;16.402;2024-02-28T00:43:43;99501.94;;;10.30;93.86
13869;BME280;7004;48.206;16.402;2024-02-28T00:46:09;99500.25;;;10.42;93.61
13869;BME280;7004;48.206;16.402;2024-02-28T00:48:41;99498.91;;;10.49;93.79
13869;BME280;7004;48.206;16.402;2024-02-28T00:51:07;99506.72;;;10.50;93.44
13869;BME280;7004;48.206;16.402;2024-02-28T00:53:35;99505.88;;;10.50;93.35
13869;BME280;7004;48.206;16.402;2024-02-28T00:56:02;99504.63;;;10.43;94.11
13869;BME280;7004;48.206;16.402;2024-02-28T00:58:29;99506.84;;;10.49;93.20
13869;BME280;7004;48.206;16.402;2024-02-28T01:00:56;99506.97;;;10.60;92.89
13869;BME280;7004;48.206;16.402;2024-02-28T01:03:28;99512.50;;;10.70;92.08
13869;BME280;7004;48.206;16.402;2024-02-28T01:05:54;99505.84;;;10.77;91.41
13869;BME280;7004;48.206;16.402;2024-02-28T01:08:40;99515.56;;;10.77;91.76
13869;BME280;7004;48.206;16.402;2024-02-28T01:11:11;99509.56;;;10.87;90.74
13869;BME280;7004;48.206;16.402;2024-02-28T01:13:46;99508.38;;;10.91;90.25
13869;BME280;7004;48.206;16.402;2024-02-28T01:16:23;99509.97;;;10.81;90.64
13869;BME280;7004;48.206;16.402;2024-02-28T01:18:54;99511.97;;;10.78;90.72
13869;BME280;7004;48.206;16.402;2024-02-28T01:21:25;99510.91;;;10.80;90.74
13869;BME280;7004;48.206;16.402;2024-02-28T01:23:54;99512.06;;;10.76;90.71
13869;BME280;7004;48.206;16.402;2024-02-28T01:26:29;99508.59;;;10.76;90.90
13869;BME280;7004;48.206;16.402;2024-02-28T01:29:00;99515.25;;;10.81;90.71
13869;BME280;7004;48.206;16.402;2024-02-28T01:31:27;99515.38;;;10.80;90.76
13869;BME280;7004;48.206;16.402;2024-02-28T01:33:56;99516.22;;;10.80;90.29
13869;BME280;7004;48.206;16.402;2024-02-28T01:36:35;99515.66;;;10.75;90.78
13869;BME280;7004;48.206;16.402;2024-02-28T01:39:10;99516.13;;;10.82;89.82
13869;BME280;7004;48.206;16.402;2024-02-28T01:41:36;99511.53;;;10.84;89.90
13869;BME280;7004;48.206;16.402;2024-02-28T01:44:09;99513.13;;;10.74;89.99
13869;BME280;7004;48.206;16.402;2024-02-28T01:46:42;99517.78;;;10.83;89.86
13869;BME280;7004;48.206;16.402;2024-02-28T01:49:12;99518.84;;;10.80;89.70
13869;BME280;7004;48.206;16.402;2024-02-28T01:51:47;99510.63;;;10.85;89.71
13869;BME280;7004;48.206;16.402;2024-02-28T01:54:18;99524.56;;;10.74;90.10
13869;BME280;7004;48.206;16.402;2024-02-28T01:56:49;99511.44;;;10.85;89.84
13869;BME280;7004;48.206;16.402;2024-02-28T01:59:26;99517.03;;;10.68;91.28
13869;BME280;7004;48.206;16.402;2024-02-28T02:01:58;99516.59;;;10.61;91.64
13869;BME280;7004;48.206;16.402;2024-02-28T02:04:25;99514.28;;;10.69;91.35
13869;BME280;7004;48.206;16.402;2024-02-28T02:06:53;99510.56;;;10.59;91.49
13869;BME280;7004;48.206;16.402;2024-02-28T02:09:20;99506.13;;;10.60;91.34
13869;BME280;7004;48.206;16.402;2024-02-28T02:11:46;99518.81;;;10.67;90.91
13869;BME280;7004;48.206;16.402;2024-02-28T02:14:13;99514.59;;;10.65;91.11
13869;BME280;7004;48.206;16.402;2024-02-28T02:16:40;99514.38;;;10.68;90.71
13869;BME280;7004;48.206;16.402;2024-02-28T02:19:08;99518.06;;;10.65;90.67
13869;BME280;7004;48.206;16.402;2024-02-28T02:21:50;99516.91;;;10.57;90.97
13869;BME280;7004;48.206;16.402;2024-02-28T02:24:17;99513.81;;;10.50;92.37
13869;BME280;7004;48.206;16.402;2024-02-28T02:26:44;99515.22;;;10.68;91.19
13869;BME280;7004;48.206;16.402;2024-02-28T02:29:13;99519.44;;;10.45;91.84
13869;BME280;7004;48.206;16.402;2024-02-28T02:31:39;99515.09;;;10.57;91.35
13869;BME280;7004;48.206;16.402;2024-02-28T02:34:06;99519.25;;;10.61;91.67
13869;BME280;7004;48.206;16.402;2024-02-28T02:36:33;99518.81;;;10.55;92.16
13869;BME280;7004;48.206;16.402;2024-02-28T02:39:00;99513.19;;;10.46;91.59
13869;BME280;7004;48.206;16.402;2024-02-28T02:41:26;99516.38;;;10.52;91.63
13869;BME280;7004;48.206;16.402;2024-02-28T02:43:52;99523.34;;;10.53;91.62
13869;BME280;7004;48.206;16.402;2024-02-28T02:46:18;99514.56;;;10.52;92.21
13869;BME280;7004;48.206;16.402;2024-02-28T02:48:45;99527.31;;;10.33;92.87
13869;BME280;7004;48.206;16.402;2024-02-28T02:51:11;99524.72;;;10.45;92.95
13869;BME280;7004;48.206;16.402;2024-02-28T02:53:37;99522.59;;;10.50;92.18
13869;BME280;7004;48.206;16.402;2024-02-28T02:56:07;99518.75;;;10.42;93.07
13869;BME280;7004;48.206;16.402;2024-02-28T02:58:33;99531.22;;;10.40;93.62
13869;BME280;7004;48.206;16.402;2024-02-28T03:00:59;99531.13;;;10.41;93.47
13869;BME280;7004;48.206;16.402;2024-02-28T03:03:25;99541.38;;;10.33;93.81
13869;BME280;7004;48.206;16.402;2024-02-28T03:05:51;99541.69;;;10.41;93.73
13869;BME280;7004;48.206;16.402;2024-02-28T03:08:17;99537.13;;;10.31;93.68
13869;BME280;7004;48.206;16.402;2024-02-28T03:10:43;99556.38;;;10.33;94.40
13869;BME280;7004;48.206;16.402;2024-02-28T03:13:10;99551.63;;;10.38;93.95
13869;BME280;7004;48.206;16.402;2024-02-28T03:15:37;99558.81;;;10.21;94.57
13869;BME280;7004;48.206;16.402;2024-02-28T03:18:08;99564.59;;;10.28;94.81
13869;BME280;7004;48.206;16.402;2024-02-28T03:20:36;99558.06;;;10.34;94.62
13869;BME280;7004;48.206;16.402;2024-02-28T03:23:10;99558.06;;;10.34;94.13
13869;BME280;7004;48.206;16.402;2024-02-28T03:25:36;99554.56;;;10.33;94.51
13869;BME280;7004;48.206;16.402;2024-02-28T03:28:03;99564.28;;;10.18;95.13
13869;BME280;7004;48.206;16.402;2024-02-28T03:30:30;99566.72;;;10.21;95.49
13869;BME280;7004;48.206;16.402;2024-02-28T03:32:58;99562.69;;;10.16;96.16
13869;BME280;7004;48.206;16.402;2024-02-28T03:35:24;99578.19;;;10.07;96.14
13869;BME280;7004;48.206;16.402;2024-02-28T03:37:51;99577.09;;;9.97;96.84
13869;BME280;7004;48.206;16.402;2024-02-28T03:40:17;99578.03;;;9.96;96.57
13869;BME280;7004;48.206;16.402;2024-02-28T03:42:44;99578.31;;;9.92;97.38
13869;BME280;7004;48.206;16.402;2024-02-28T03:45:10;99587.47;;;9.86;97.45
13869;BME280;7004;48.206;16.402;2024-02-28T03:47:39;99590.56;;;9.93;97.29
13869;BME280;7004;48.206;16.402;2024-02-28T03:50:06;99597.28;;;9.84;97.53
13869;BME280;7004;48.206;16.402;2024-02-28T03:52:32;99585.69;;;9.87;97.30
13869;BME280;7004;48.206;16.402;2024-02-28T03:54:59;99595.75;;;9.94;97.08
13869;BME280;7004;48.206;16.402;2024-02-28T03:57:25;99606.53;;;9.91;96.75
13869;BME280;7004;48.206;16.402;2024-02-28T03:59:51;99604.06;;;9.45;96.99
13869;BME280;7004;48.206;16.402;2024-02-28T04:02:18;99602.09;;;9.49;93.64
13869;BME280;7004;48.206;16.402;2024-02-28T04:04:44;99615.84;;;9.54;93.64
13869;BME280;7004;48.206;16.402;2024-02-28T04:07:11;99615.06;;;9.52;91.80
13869;BME280;7004;48.206;16.402;2024-02-28T04:09:38;99612.25;;;9.40;92.68
13869;BME280;7004;48.206;16.402;2024-02-28T04:12:04;99622.34;;;9.34;93.04
13869;BME280;7004;48.206;16.402;2024-02-28T04:14:31;99632.06;;;9.48;91.73
13869;BME280;7004;48.206;16.402;2024-02-28T04:16:57;99626.34;;;9.11;93.12
13869;BME280;7004;48.206;16.402;2024-02-28T04:19:23;99635.59;;;9.32;92.66
13869;BME280;7004;48.206;16.402;2024-02-28T04:21:49;99622.34;;;9.34;91.75
13869;BME280;7004;48.206;16.402;2024-02-28T04:24:23;99623.19;;;9.34;92.12
13869;BME280;7004;48.206;16.402;2024-02-28T04:26:49;99632.41;;;9.27;91.69
13869;BME280;7004;48.206;16.402;2024-02-28T04:29:15;99641.41;;;9.23;90.29
13869;BME280;7004;48.206;16.402;2024-02-28T04:31:41;99640.97;;;9.31;89.52
13869;BME280;7004;48.206;16.402;2024-02-28T04:34:07;99646.09;;;9.34;88.69
13869;BME280;7004;48.206;16.402;2024-02-28T04:36:33;99642.22;;;9.39;88.54
13869;BME280;7004;48.206;16.402;2024-02-28T04:38:59;99641.66;;;9.34;87.40
13869;BME280;7004;48.206;16.402;2024-02-28T04:41:28;99650.38;;;9.21;88.32
13869;BME280;7004;48.206;16.402;2024-02-28T04:43:54;99648.03;;;9.16;87.33
13869;BME280;7004;48.206;16.402;2024-02-28T04:46:20;99647.56;;;8.93;87.99
13869;BME280;7004;48.206;16.402;2024-02-28T04:48:46;99664.22;;;8.94;87.67
13869;BME280;7004;48.206;16.402;2024-02-28T04:51:16;99664.28;;;9.08;86.66
13869;BME280;7004;48.206;16.402;2024-02-28T04:53:45;99656.25;;;8.95;87.08
13869;BME280;7004;48.206;16.402;2024-02-28T04:56:11;99659.72;;;8.96;87.21
13869;BME280;7004;48.206;16.402;2024-02-28T04:58:37;99661.00;;;8.89;86.80
13869;BME280;7004;48.206;16.402;2024-02-28T05:01:03;99669.34;;;8.81;87.39
13869;BME280;7004;48.206;16.402;2024-02-28T05:03:30;99669.72;;;8.75;86.89
13869;BME280;7004;48.206;16.402;2024-02-28T05:05:56;99677.63;;;8.75;86.86
13869;BME280;7004;48.206;16.402;2024-02-28T05:08:22;99667.56;;;8.82;86.11
13869;BME280;7004;48.206;16.402;2024-02-28T05:10:49;99667.28;;;8.86;85.88
13869;BME280;7004;48.206;16.402;2024-02-28T05:13:16;99684.09;;;8.53;87.07
13869;BME280;7004;48.206;16.402;2024-02-28T05:15:42;99681.72;;;8.49;87.00
13869;BME280;7004;48.206;16.402;2024-02-28T05:18:08;99689.84;;;8.60;86.23
13869;BME280;7004;48.206;16.402;2024-02-28T05:20:35;99678.72;;;8.55;86.05
13869;BME280;7004;48.206;16.402;2024-02-28T05:23:01;99679.41;;;8.59;85.93
13869;BME280;7004;48.206;16.402;2024-02-28T05:25:27;99674.47;;;8.52;85.81
13869;BME280;7004;48.206;16.402;2024-02-28T05:27:53;99692.75;;;8.56;85.44
13869;BME280;7004;48.206;16.402;2024-02-28T05:30:19;99699.81;;;8.55;85.38
13869;BME280;7004;48.206;16.402;2024-02-28T05:32:46;99687.06;;;8.47;85.57
13869;BME280;7004;48.206;16.402;2024-02-28T05:35:12;99688.06;;;8.45;86.40
13869;BME280;7004;48.206;16.402;2024-02-28T05:37:40;99706.84;;;8.55;85.70
13869;BME280;7004;48.206;16.402;2024-02-28T05:40:07;99708.81;;;8.67;85.11
13869;BME280;7004;48.206;16.402;2024-02-28T05:42:35;99702.25;;;8.42;86.03
13869;BME280;7004;48.206;16.402;2024-02-28T05:45:01;99709.97;;;8.45;86.12
13869;BME280;7004;48.206;16.402;2024-02-28T05:47:27;99725.91;;;8.44;85.77
13869;BME280;7004;48.206;16.402;2024-02-28T05:49:53;99727.69;;;8.43;85.41
13869;BME280;7004;48.206;16.402;2024-02-28T05:52:21;99711.94;;;8.58;84.23
13869;BME280;7004;48.206;16.402;2024-02-28T05:54:48;99727.69;;;8.43;84.10
13869;BME280;7004;48.206;16.402;2024-02-28T05:57:14;99737.03;;;8.65;83.77
13869;BME280;7004;48.206;16.402;2024-02-28T05:59:42;99741.28;;;8.51;84.28
13869;BME280;7004;48.206;16.402;2024-02-28T06:02:08;99734.25;;;8.35;84.06
13869;BME280;7004;48.206;16.402;2024-02-28T06:04:34;99741.06;;;8.39;83.49
13869;BME280;7004;48.206;16.402;2024-02-28T06:07:00;99747.63;;;8.47;83.35
13869;BME280;7004;48.206;16.402;2024-02-28T06:09:27;99750.75;;;8.38;84.18
13869;BME280;7004;48.206;16.402;2024-02-28T06:11:56;99758.72;;;8.37;83.24
13869;BME280;7004;48.206;16.402;2024-02-28T06:14:22;99750.88;;;8.52;82.92
13869;BME280;7004;48.206;16.402;2024-02-28T06:16:48;99755.47;;;8.49;82.99
13869;BME280;7004;48.206;16.402;2024-02-28T06:19:14;99761.75;;;8.46;83.10
13869;BME280;7004;48.206;16.402;2024-02-28T06:21:40;99760.16;;;8.60;82.47
13869;BME280;7004;48.206;16.402;2024-02-28T06:24:06;99766.56;;;8.38;82.79
13869;BME280;7004;48.206;16.402;2024-02-28T06:26:32;99776.72;;;8.46;82.04
13869;BME280;7004;48.206;16.402;2024-02-28T06:28:59;99767.63;;;8.51;81.42
13869;BME280;7004;48.206;16.402;2024-02-28T06:31:28;99773.38;;;8.42;81.94
13869;BME280;7004;48.206;16.402;2024-02-28T06:33:57;99785.91;;;8.55;81.62
13869;BME280;7004;48.206;16.402;2024-02-28T06:36:23;99799.69;;;8.75;81.17
13869;BME280;7004;48.206;16.402;2024-02-28T06:38:50;99805.97;;;8.73;80.06
13869;BME280;7004;48.206;16.402;2024-02-28T06:41:16;99801.47;;;8.59;81.03
13869;BME280;7004;48.206;16.402;2024-02-28T06:43:42;99804.97;;;8.75;80.42
13869;BME280;7004;48.206;16.402;2024-02-28T06:46:08;99808.69;;;8.71;80.32
13869;BME280;7004;48.206;16.402;2024-02-28T06:48:35;99812.03;;;8.75;80.94
13869;BME280;7004;48.206;16.402;2024-02-28T06:51:01;99816.25;;;8.62;80.11
13869;BME280;7004;48.206;16.402;2024-02-28T06:53:27;99826.75;;;8.95;78.94
13869;BME280;7004;48.206;16.402;2024-02-28T06:55:54;99825.81;;;8.80;79.78
13869;BME280;7004;48.206;16.402;2024-02-28T06:58:20;99821.78;;;8.73;79.48
13869;BME280;7004;48.206;16.402;2024-02-28T07:00:48;99828.31;;;8.66;79.85
13869;BME280;7004;48.206;16.402;2024-02-28T07:03:14;99838.31;;;8.92;78.69
13869;BME280;7004;48.206;16.402;2024-02-28T07:05:40;99839.34;;;8.90;78.89
13869;BME280;7004;48.206;16.402;2024-02-28T07:08:06;99836.78;;;8.88;78.69
13869;BME280;7004;48.206;16.402;2024-02-28T07:10:32;99843.84;;;8.88;78.48
13869;BME280;7004;48.206;16.402;2024-02-28T07:12:58;99841.69;;;8.79;79.42
13869;BME280;7004;48.206;16.402;2024-02-28T07:15:25;99853.25;;;8.92;78.32
13869;BME280;7004;48.206;16.402;2024-02-28T07:17:51;99848.75;;;8.78;78.99
13869;BME280;7004;48.206;16.402;2024-02-28T07:20:17;99855.47;;;9.00;78.94
13869;BME280;7004;48.206;16.402;2024-02-28T07:22:46;99853.13;;;9.11;78.10
13869;BME280;7004;48.206;16.402;2024-02-28T07:25:12;99850.50;;;8.95;78.25
13869;BME280;7004;48.206;16.402;2024-02-28T07:27:38;99860.94;;;8.96;78.44
13869;BME280;7004;48.206;16.402;2024-02-28T07:30:05;99864.69;;;8.92;78.09
13869;BME280;7004;48.206;16.402;2024-02-28T07:32:32;99872.00;;;8.87;78.53
13869;BME280;7004;48.206;16.402;2024-02-28T07:35:04;99872.84;;;8.88;77.96
13869;BME280;7004;48.206;16.402;2024-02-28T07:37:32;99862.19;;;9.05;78.51
13869;BME280;7004;48.206;16.402;2024-02-28T07:39:58;99868.09;;;9.42;76.91
13869;BME280;7004;48.206;16.402;2024-02-28T07:42:24;99868.78;;;9.14;77.02
13869;BME280;7004;48.206;16.402;2024-02-28T07:44:50;99870.47;;;9.31;77.34
13869;BME280;7004;48.206;16.402;2024-02-28T07:47:19;99874.25;;;9.57;75.81
13869;BME280;7004;48.206;16.402;2024-02-28T07:49:45;99874.97;;;9.45;75.51
13869;BME280;7004;48.206;16.402;2024-02-28T07:52:12;99880.94;;;9.16;76.26
13869;BME280;7004;48.206;16.402;2024-02-28T07:54:38;99884.66;;;9.28;76.42
13869;BME280;7004;48.206;16.402;2024-02-28T07:57:07;99893.28;;;9.16;76.42
13869;BME280;7004;48.206;16.402;2024-02-28T07:59:41;99893.00;;;9.36;75.36
13869;BME280;7004;48.206;16.402;2024-02-28T08:02:09;99897.25;;;9.39;75.22
13869;BME280;7004;48.206;16.402;2024-02-28T08:04:36;99905.69;;;9.61;74.83
13869;BME280;7004;48.206;16.402;2024-02-28T08:07:03;99902.13;;;9.15;75.00
13869;BME280;7004;48.206;16.402;2024-02-28T08:09:29;99900.50;;;9.76;74.49
13869;BME280;7004;48.206;16.402;2024-02-28T08:11:55;99905.47;;;9.80;73.51
13869;BME280;7004;48.206;16.402;2024-02-28T08:14:21;99911.94;;;9.29;73.46
13869;BME280;7004;48.206;16.402;2024-02-28T08:16:47;99913.53;;;9.47;73.45
13869;BME280;7004;48.206;16.402;2024-02-28T08:19:13;99915.41;;;9.61;73.35
13869;BME280;7004;48.206;16.402;2024-02-28T08:21:40;99915.16;;;9.50;73.77
13869;BME280;7004;48.206;16.402;2024-02-28T08:24:06;99920.34;;;9.35;73.57
13869;BME280;7004;48.206;16.402;2024-02-28T08:26:33;99924.41;;;9.25;73.95
13869;BME280;7004;48.206;16.402;2024-02-28T08:28:59;99934.22;;;9.55;73.14
13869;BME280;7004;48.206;16.402;2024-02-28T08:31:25;99933.19;;;9.57;72.97
13869;BME280;7004;48.206;16.402;2024-02-28T08:33:51;99933.09;;;9.43;73.11
13869;BME280;7004;48.206;16.402;2024-02-28T08:36:18;99931.22;;;9.77;72.21
13869;BME280;7004;48.206;16.402;2024-02-28T08:38:44;99931.34;;;10.05;71.40
13869;BME280;7004;48.206;16.402;2024-02-28T08:41:10;99942.88;;;9.57;72.61
13869;BME280;7004;48.206;16.402;2024-02-28T08:43:41;99937.28;;;9.63;72.64
13869;BME280;7004;48.206;16.402;2024-02-28T08:46:07;99942.22;;;9.69;72.63
13869;BME280;7004;48.206;16.402;2024-02-28T08:48:34;99951.72;;;9.88;72.32
13869;BME280;7004;48.206;16.402;2024-02-28T08:51:00;99957.06;;;10.02;71.29
13869;BME280;7004;48.206;16.402;2024-02-28T08:53:26;99957.13;;;9.70;71.95
13869;BME280;7004;48.206;16.402;2024-02-28T08:55:53;99948.94;;;10.21;70.76
13869;BME280;7004;48.206;16.402;2024-02-28T08:58:19;99953.56;;;10.17;70.66
13869;BME280;7004;48.206;16.402;2024-02-28T09:00:45;99954.03;;;9.94;71.30
13869;BME280;7004;48.206;16.402;2024-02-28T09:03:13;99956.94;;;9.89;71.01
13869;BME280;7004;48.206;16.402;2024-02-28T09:05:39;99951.22;;;10.43;69.36
13869;BME280;7004;48.206;16.402;2024-02-28T09:08:07;99947.03;;;10.39;70.21
13869;BME280;7004;48.206;16.402;2024-02-28T09:10:33;99953.28;;;10.52;70.12
13869;BME280;7004;48.206;16.402;2024-02-28T09:13:00;99949.44;;;10.58;69.05
13869;BME280;7004;48.206;16.402;2024-02-28T09:15:26;99964.81;;;10.05;70.24
13869;BME280;7004;48.206;16.402;2024-02-28T09:17:52;99958.88;;;10.62;68.49
13869;BME280;7004;48.206;16.402;2024-02-28T09:20:18;99965.63;;;10.21;70.06
13869;BME280;7004;48.206;16.402;2024-02-28T09:22:44;99964.41;;;10.27;70.12
13869;BME280;7004;48.206;16.402;2024-02-28T09:25:11;99975.13;;;10.10;70.57
13869;BME280;7004;48.206;16.402;2024-02-28T09:27:37;99969.66;;;10.59;69.74
13869;BME280;7004;48.206;16.402;2024-02-28T09:30:04;99968.63;;;10.61;68.62
13869;BME280;7004;48.206;16.402;2024-02-28T09:32:31;99984.16;;;10.52;69.38
13869;BME280;7004;48.206;16.402;2024-02-28T09:34:57;99983.97;;;10.40;69.42
13869;BME280;7004;48.206;16.402;2024-02-28T09:37:24;99978.28;;;10.77;68.57
13869;BME280;7004;48.206;16.402;2024-02-28T09:39:51;99974.94;;;10.73;68.49
13869;BME280;7004;48.206;16.402;2024-02-28T09:42:17;99983.59;;;10.46;69.31
13869;BME280;7004;48.206;16.402;2024-02-28T09:44:43;99996.09;;;10.13;69.93
13869;BME280;7004;48.206;16.402;2024-02-28T09:47:10;99984.50;;;10.76;68.32
13869;BME280;7004;48.206;16.402;2024-02-28T09:49:37;99995.84;;;10.92;68.56
13869;BME280;7004;48.206;16.402;2024-02-28T09:52:04;100004.81;;;10.75;67.91
13869;BME280;7004;48.206;16.402;2024-02-28T09:54:30;99999.34;;;11.35;66.55
13869;BME280;7004;48.206;16.402;2024-02-28T09:56:56;99990.38;;;11.09;66.48
13869;BME280;7004;48.206;16.402;2024-02-28T09:59:24;99994.25;;;11.47;66.44
13869;BME280;7004;48.206;16.402;2024-02-28T10:01:56;99995.66;;;11.52;65.54
13869;BME280;7004;48.206;16.402;2024-02-28T10:04:27;99999.19;;;11.80;64.61
13869;BME280;7004;48.206;16.402;2024-02-28T10:06:56;100000.28;;;12.05;63.72
13869;BME280;7004;48.206;16.402;2024-02-28T10:09:22;100015.22;;;12.06;64.20
13869;BME280;7004;48.206;16.402;2024-02-28T10:11:49;100011.50;;;11.81;64.52
13869;BME280;7004;48.206;16.402;2024-02-28T10:14:18;100012.00;;;12.55;61.59
13869;BME280;7004;48.206;16.402;2024-02-28T10:16:45;100020.88;;;13.06;59.96
13869;BME280;7004;48.206;16.402;2024-02-28T10:19:11;100022.75;;;12.79;60.97
13869;BME280;7004;48.206;16.402;2024-02-28T10:21:37;100017.25;;;13.46;58.29
13869;BME280;7004;48.206;16.402;2024-02-28T10:24:05;100020.13;;;12.39;61.13
13869;BME280;7004;48.206;16.402;2024-02-28T10:26:31;100019.47;;;12.75;61.27
13869;BME280;7004;48.206;16.402;2024-02-28T10:29:03;100022.47;;;12.43;62.15
13869;BME280;7004;48.206;16.402;2024-02-28T10:31:32;100014.56;;;12.56;61.17
13869;BME280;7004;48.206;16.402;2024-02-28T10:34:01;100020.88;;;13.19;59.45
13869;BME280;7004;48.206;16.402;2024-02-28T10:36:31;100008.91;;;13.26;59.17
13869;BME280;7004;48.206;16.402;2024-02-28T10:38:58;100015.34;;;13.22;58.76
13869;BME280;7004;48.206;16.402;2024-02-28T10:41:26;100013.88;;;12.93;59.39
13869;BME280;7004;48.206;16.402;2024-02-28T10:43:54;100013.75;;;13.58;58.25
13869;BME280;7004;48.206;16.402;2024-02-28T10:46:20;100008.69;;;13.42;58.50
13869;BME280;7004;48.206;16.402;2024-02-28T10:48:50;100016.59;;;13.68;57.43
13869;BME280;7004;48.206;16.402;2024-02-28T10:51:24;100010.97;;;14.20;56.24
13869;BME280;7004;48.206;16.402;2024-02-28T10:54:12;100009.81;;;13.51;58.21
13869;BME280;7004;48.206;16.402;2024-02-28T10:56:39;100012.56;;;13.99;55.22
13869;BME280;7004;48.206;16.402;2024-02-28T10:59:11;100016.31;;;14.20;56.17
13869;BME280;7004;48.206;16.402;2024-02-28T11:01:43;100015.78;;;15.33;53.16
13869;BME280;7004;48.206;16.402;2024-02-28T11:04:12;100016.06;;;14.48;53.95
13869;BME280;7004;48.206;16.402;2024-02-28T11:06:55;100010.75;;;13.99;55.06
13869;BME280;7004;48.206;16.402;2024-02-28T11:09:22;100019.50;;;13.52;55.75
13869;BME280;7004;48.206;16.402;2024-02-28T11:11:50;100008.19;;;13.98;55.97
13869;BME280;7004;48.206;16.402;2024-02-28T11:14:19;100010.16;;;13.96;56.68
13869;BME280;7004;48.206;16.402;2024-02-28T11:16:59;100001.75;;;14.13;55.36
13869;BME280;7004;48.206;16.402;2024-02-28T11:19:29;100005.59;;;14.33;55.48
13869;BME280;7004;48.206;16.402;2024-02-28T11:22:02;100003.31;;;13.68;56.41
13869;BME280;7004;48.206;16.402;2024-02-28T11:24:31;100002.38;;;13.93;55.67
13869;BME280;7004;48.206;16.402;2024-02-28T11:26:57;100008.50;;;14.06;54.68
13869;BME280;7004;48.206;16.402;2024-02-28T11:29:28;100005.72;;;14.32;54.83
13869;BME280;7004;48.206;16.402;2024-02-28T11:31:55;100001.22;;;13.47;56.49
13869;BME280;7004;48.206;16.402;2024-02-28T11:34:22;100001.09;;;14.23;54.19
13869;BME280;7004;48.206;16.402;2024-02-28T11:36:50;99998.97;;;15.21;52.67
13869;BME280;7004;48.206;16.402;2024-02-28T11:39:17;99984.78;;;15.43;52.12
13869;BME280;7004;48.206;16.402;2024-02-28T11:41:44;100000.66;;;13.68;56.36
13869;BME280;7004;48.206;16.402;2024-02-28T11:44:16;99996.78;;;14.33;54.76
13869;BME280;7004;48.206;16.402;2024-02-28T11:46:47;99991.56;;;15.36;52.19
13869;BME280;7004;48.206;16.402;2024-02-28T11:49:14;99993.06;;;14.35;54.13
13869;BME280;7004;48.206;16.402;2024-02-28T11:51:43;99987.97;;;14.32;54.47
13869;BME280;7004;48.206;16.402;2024-02-28T11:54:11;99986.06;;;14.70;53.82
13869;BME280;7004;48.206;16.402;2024-02-28T11:56:40;99993.72;;;14.50;53.93
13869;BME280;7004;48.206;16.402;2024-02-28T11:59:08;99991.97;;;13.53;55.33
13869;BME280;7004;48.206;16.402;2024-02-28T12:01:43;99994.00;;;13.86;56.19
13869;BME280;7004;48.206;16.402;2024-02-28T12:04:13;100001.28;;;13.71;56.56
13869;BME280;7004;48.206;16.402;2024-02-28T12:06:40;99992.63;;;13.18;58.03
13869;BME280;7004;48.206;16.402;2024-02-28T12:09:08;99988.72;;;13.11;58.27
13869;BME280;7004;48.206;16.402;2024-02-28T12:11:36;99992.78;;;13.66;57.28
13869;BME280;7004;48.206;16.402;2024-02-28T12:14:07;99989.47;;;13.13;58.09
13869;BME280;7004;48.206;16.402;2024-02-28T12:16:37;99987.44;;;12.91;58.92
13869;BME280;7004;48.206;16.402;2024-02-28T12:19:10;99989.47;;;13.00;59.00
13869;BME280;7004;48.206;16.402;2024-02-28T12:21:37;99994.34;;;13.32;58.22
13869;BME280;7004;48.206;16.402;2024-02-28T12:24:08;99984.91;;;12.77;59.68
13869;BME280;7004;48.206;16.402;2024-02-28T12:26:36;99985.50;;;13.57;59.34
13869;BME280;7004;48.206;16.402;2024-02-28T12:29:02;99980.84;;;12.84;61.21
13869;BME280;7004;48.206;16.402;2024-02-28T12:31:29;99984.78;;;12.78;60.22
13869;BME280;7004;48.206;16.402;2024-02-28T12:33:55;99982.22;;;13.15;59.67
13869;BME280;7004;48.206;16.402;2024-02-28T12:36:21;99980.13;;;13.83;59.03
13869;BME280;7004;48.206;16.402;2024-02-28T12:38:47;99990.78;;;13.70;57.02
13869;BME280;7004;48.206;16.402;2024-02-28T12:41:14;99984.56;;;12.94;59.70
13869;BME280;7004;48.206;16.402;2024-02-28T12:43:41;99973.09;;;13.19;58.63
13869;BME280;7004;48.206;16.402;2024-02-28T12:46:07;99973.94;;;13.32;58.54
13869;BME280;7004;48.206;16.402;2024-02-28T12:48:38;99972.97;;;13.83;57.73
13869;BME280;7004;48.206;16.402;2024-02-28T12:51:05;99981.19;;;14.04;56.55
13869;BME280;7004;48.206;16.402;2024-02-28T12:53:32;99977.75;;;13.91;56.76
13869;BME280;7004;48.206;16.402;2024-02-28T12:55:58;99982.13;;;13.04;59.03
13869;BME280;7004;48.206;16.402;2024-02-28T12:58:26;99982.25;;;13.02;60.14
13869;BME280;7004;48.206;16.402;2024-02-28T13:00:53;99990.41;;;13.38;58.75
13869;BME280;7004;48.206;16.402;2024-02-28T13:03:19;99993.38;;;13.33;60.09
13869;BME280;7004;48.206;16.402;2024-02-28T13:05:45;99995.59;;;12.88;60.14